Time;durP1;ratioP1;P1;durP2;ratioP2;P2;SDS_P1;SDS_P2;PMS_P1;PMS_P2;Temp;Humidity;BMP_temperature;BMP_pressure;BME280_temperature;BME280_humidity;BME280_pressure;Samples;Min_cycle;Max_cycle;Signal;HPM_P1;HPM_P2
2023/11/11 00:01:26;;;;;;;4.03;2.28;;;;;;;;;;4996348;28;20046;-86
2023/11/11 00:03:53;;;;;;;3.90;2.50;;;;;;;;;;5011375;28;20062;-87
2023/11/11 00:06:21;;;;;;;6.18;2.60;;;;;;;;;;5011020;28;20130;-87
2023/11/11 00:08:48;;;;;;;6.03;2.33;;;;;;;;;;4996391;28;20077;-87
2023/11/11 00:11:16;;;;;;;4.80;2.75;;;;;;;;;;5011327;28;20575;-87
2023/11/11 00:13:44;;;;;;;5.97;2.42;;;;;;;;;;5011267;28;20046;-87
2023/11/11 00:16:11;;;;;;;5.15;2.40;;;;;;;;;;5011127;28;20042;-86
2023/11/11 00:18:39;;;;;;;3.38;2.53;;;;;;;;;;4996026;28;20046;-87
2023/11/11 00:21:07;;;;;;;5.53;2.63;;;;;;;;;;4996257;28;20418;-87
2023/11/11 00:23:35;;;;;;;2.80;2.25;;;;;;;;;;5003350;28;20458;-87
2023/11/11 00:26:03;;;;;;;3.10;2.47;;;;;;;;;;5011301;28;20443;-87
2023/11/11 00:28:30;;;;;;;2.53;2.10;;;;;;;;;;5011251;28;20113;-87
2023/11/11 00:30:57;;;;;;;6.45;2.45;;;;;;;;;;5011186;28;20054;-87
2023/11/11 00:33:25;;;;;;;6.40;2.90;;;;;;;;;;5010739;28;20089;-87
2023/11/11 00:35:52;;;;;;;4.18;3.10;;;;;;;;;;5010612;28;20141;-87
2023/11/11 00:38:20;;;;;;;6.30;2.88;;;;;;;;;;4995984;28;20050;-87
2023/11/11 00:40:47;;;;;;;6.53;3.20;;;;;;;;;;4995961;28;20470;-87
2023/11/11 00:43:14;;;;;;;4.65;2.80;;;;;;;;;;5010935;28;20060;-87
2023/11/11 00:45:41;;;;;;;3.75;2.95;;;;;;;;;;5010709;28;20046;-87
2023/11/11 00:48:09;;;;;;;5.85;2.90;;;;;;;;;;5010886;28;20062;-87
2023/11/11 00:50:36;;;;;;;7.30;2.78;;;;;;;;;;5011007;28;20046;-87
2023/11/11 00:53:03;;;;;;;8.80;3.42;;;;;;;;;;5010531;28;20133;-87
2023/11/11 00:55:31;;;;;;;4.25;2.47;;;;;;;;;;4995382;28;20054;-87
2023/11/11 00:57:58;;;;;;;3.05;2.30;;;;;;;;;;4995294;28;20462;-86
2023/11/11 01:00:26;;;;;;;6.53;2.95;;;;;;;;;;5010414;28;20456;-87
2023/11/11 01:02:54;;;;;;;4.50;2.42;;;;;;;;;;4995398;28;20069;-87
2023/11/11 01:05:23;;;;;;;4.65;2.40;;;;;;;;;;4995438;28;20171;-88
2023/11/11 01:07:50;;;;;;;3.63;2.50;;;;;;;;;;5010222;28;20059;-87
2023/11/11 01:10:21;;;;;;;5.25;2.45;;;;;;;;;;5010260;28;20050;-87
2023/11/11 01:12:48;;;;;;;3.55;2.40;;;;;;;;;;4994752;28;20108;-87
2023/11/11 01:15:16;;;;;;;5.88;1.92;;;;;;;;;;4995178;28;20054;-87
2023/11/11 01:17:43;;;;;;;5.32;2.40;;;;;;;;;;5010545;28;20042;-86
2023/11/11 01:20:12;;;;;;;3.80;1.83;;;;;;;;;;5009972;28;20510;-87
2023/11/11 01:22:40;;;;;;;5.40;2.20;;;;;;;;;;5009669;28;20054;-86
2023/11/11 01:25:07;;;;;;;4.28;2.35;;;;;;;;;;5009339;28;20055;-86
2023/11/11 01:27:36;;;;;;;6.07;2.67;;;;;;;;;;5009945;28;20122;-86
2023/11/11 01:30:04;;;;;;;3.88;2.42;;;;;;;;;;5009904;28;20058;-86
2023/11/11 01:32:31;;;;;;;4.72;2.33;;;;;;;;;;4994258;28;20081;-85
2023/11/11 01:34:58;;;;;;;6.60;2.30;;;;;;;;;;5009383;28;20054;-86
2023/11/11 01:37:26;;;;;;;2.22;1.80;;;;;;;;;;4994217;28;20050;-85
2023/11/11 01:39:54;;;;;;;2.80;2.33;;;;;;;;;;5009975;28;20046;-86
2023/11/11 01:42:22;;;;;;;2.97;2.00;;;;;;;;;;5009450;28;20050;-86
2023/11/11 01:44:49;;;;;;;2.22;2.00;;;;;;;;;;5009519;28;20388;-86
2023/11/11 01:47:17;;;;;;;6.20;2.15;;;;;;;;;;5008859;28;20081;-86
2023/11/11 01:49:44;;;;;;;7.75;2.60;;;;;;;;;;5009001;28;20050;-86
2023/11/11 01:52:12;;;;;;;3.53;2.95;;;;;;;;;;4994049;28;20086;-86
2023/11/11 01:54:40;;;;;;;5.00;3.00;;;;;;;;;;5008924;28;20054;-86
2023/11/11 01:57:08;;;;;;;6.97;3.53;;;;;;;;;;5009085;28;20487;-86
2023/11/11 01:59:36;;;;;;;6.78;3.40;;;;;;;;;;4993963;28;20050;-86
2023/11/11 02:02:03;;;;;;;7.57;3.30;;;;;;;;;;5009281;28;20093;-86
2023/11/11 02:04:30;;;;;;;9.10;4.07;;;;;;;;;;4993516;28;20046;-85
2023/11/11 02:06:58;;;;;;;5.53;3.15;;;;;;;;;;4993800;28;20057;-86
2023/11/11 02:09:26;;;;;;;5.60;3.17;;;;;;;;;;5009082;28;20105;-86
2023/11/11 02:11:56;;;;;;;9.38;4.03;;;;;;;;;;5009472;28;20054;-86
2023/11/11 02:14:24;;;;;;;4.03;3.35;;;;;;;;;;5008454;28;20054;-87
2023/11/11 02:16:51;;;;;;;7.13;4.20;;;;;;;;;;5009323;28;20042;-86
2023/11/11 02:19:18;;;;;;;7.22;3.60;;;;;;;;;;4994188;28;20097;-86
2023/11/11 02:21:47;;;;;;;9.02;4.63;;;;;;;;;;4994674;28;20464;-86
2023/11/11 02:24:16;;;;;;;9.98;4.85;;;;;;;;;;5009847;28;20064;-87
2023/11/11 02:26:44;;;;;;;8.60;4.38;;;;;;;;;;5008998;28;20149;-86
2023/11/11 02:29:12;;;;;;;5.55;3.60;;;;;;;;;;5008805;28;20052;-86
2023/11/11 02:31:39;;;;;;;3.78;3.28;;;;;;;;;;5008620;28;20046;-86
2023/11/11 02:34:07;;;;;;;7.15;3.63;;;;;;;;;;4993591;28;20729;-86
2023/11/11 02:36:34;;;;;;;7.50;3.63;;;;;;;;;;5001015;28;20050;-87
2023/11/11 02:39:03;;;;;;;7.93;3.55;;;;;;;;;;5008932;28;20134;-86
2023/11/11 02:41:31;;;;;;;5.40;3.83;;;;;;;;;;4993595;28;20054;-86
2023/11/11 02:43:58;;;;;;;5.30;3.67;;;;;;;;;;4993397;28;20129;-87
2023/11/11 02:46:25;;;;;;;8.63;3.53;;;;;;;;;;5008574;28;20042;-86
2023/11/11 02:48:52;;;;;;;5.13;3.42;;;;;;;;;;4993593;28;20423;-86
2023/11/11 02:51:20;;;;;;;5.55;3.55;;;;;;;;;;4993349;28;20047;-86
2023/11/11 02:53:47;;;;;;;5.75;3.85;;;;;;;;;;4993414;28;20050;-86
2023/11/11 02:56:14;;;;;;;5.88;3.78;;;;;;;;;;4993278;28;20125;-86
2023/11/11 02:58:41;;;;;;;10.43;3.72;;;;;;;;;;4993168;28;20085;-86
2023/11/11 03:01:09;;;;;;;8.85;4.10;;;;;;;;;;5012240;28;20046;-86
2023/11/11 03:03:36;;;;;;;7.72;4.50;;;;;;;;;;5012262;28;20109;-87
2023/11/11 03:06:05;;;;;;;7.32;3.85;;;;;;;;;;4997642;28;20054;-87
2023/11/11 03:08:36;;;;;;;7.25;3.92;;;;;;;;;;5004580;28;20132;-86
2023/11/11 03:11:04;;;;;;;6.90;4.00;;;;;;;;;;5012265;28;20050;-85
2023/11/11 03:13:32;;;;;;;7.75;3.90;;;;;;;;;;5011953;28;20057;-86
2023/11/11 03:15:59;;;;;;;5.47;3.42;;;;;;;;;;4997120;28;20046;-86
2023/11/11 03:18:27;;;;;;;6.47;3.78;;;;;;;;;;5012389;28;20054;-86
2023/11/11 03:20:54;;;;;;;7.10;3.47;;;;;;;;;;5012334;28;20050;-86
2023/11/11 03:23:21;;;;;;;16.15;4.47;;;;;;;;;;4996728;28;20061;-86
2023/11/11 03:25:48;;;;;;;8.70;3.92;;;;;;;;;;5011899;28;20423;-86
2023/11/11 03:28:16;;;;;;;6.60;4.03;;;;;;;;;;5011638;28;20051;-86
2023/11/11 03:30:43;;;;;;;5.93;3.55;;;;;;;;;;5012182;28;20485;-86
2023/11/11 03:33:10;;;;;;;11.32;5.10;;;;;;;;;;5011701;28;20046;-86
2023/11/11 03:35:38;;;;;;;6.15;3.58;;;;;;;;;;5011976;28;20081;-86
2023/11/11 03:38:09;;;;;;;8.52;5.32;;;;;;;;;;4996533;28;20550;-85
2023/11/11 03:40:36;;;;;;;5.75;4.38;;;;;;;;;;5011738;28;20054;-86
2023/11/11 03:43:03;;;;;;;9.75;5.45;;;;;;;;;;5011721;28;20458;-86
2023/11/11 03:45:31;;;;;;;6.32;4.40;;;;;;;;;;4996353;28;20050;-85
2023/11/11 03:47:58;;;;;;;11.65;5.35;;;;;;;;;;5011981;28;20057;-87
2023/11/11 03:50:26;;;;;;;4.68;4.18;;;;;;;;;;4996321;28;20050;-86
2023/11/11 03:52:53;;;;;;;6.18;4.97;;;;;;;;;;4996385;28;20046;-86
2023/11/11 03:55:20;;;;;;;9.35;5.75;;;;;;;;;;5011516;28;20128;-87
2023/11/11 03:57:48;;;;;;;6.07;4.80;;;;;;;;;;5011505;28;20042;-86
2023/11/11 04:00:19;;;;;;;10.60;5.72;;;;;;;;;;5011277;28;20050;-86
2023/11/11 04:02:47;;;;;;;5.80;4.80;;;;;;;;;;5011275;28;20124;-85
2023/11/11 04:05:15;;;;;;;8.30;5.43;;;;;;;;;;5011262;28;20058;-86
2023/11/11 04:07:42;;;;;;;12.77;4.78;;;;;;;;;;5011147;28;20062;-87
2023/11/11 04:10:10;;;;;;;7.72;4.47;;;;;;;;;;4995603;28;20046;-86
2023/11/11 04:12:37;;;;;;;6.43;4.55;;;;;;;;;;5010998;28;20077;-87
2023/11/11 04:15:04;;;;;;;6.18;4.43;;;;;;;;;;4995583;28;20145;-86
2023/11/11 04:17:32;;;;;;;7.88;5.50;;;;;;;;;;5011269;28;20104;-86
2023/11/11 04:19:59;;;;;;;17.48;6.40;;;;;;;;;;5010839;28;20491;-87
2023/11/11 04:22:26;;;;;;;9.73;4.60;;;;;;;;;;4995674;28;20050;-86
2023/11/11 04:24:54;;;;;;;9.32;4.15;;;;;;;;;;5011039;28;20050;-86
2023/11/11 04:27:21;;;;;;;9.48;4.75;;;;;;;;;;5010948;28;20439;-88
2023/11/11 04:29:48;;;;;;;7.93;5.00;;;;;;;;;;4996089;28;20104;-86
2023/11/11 04:32:15;;;;;;;10.40;4.28;;;;;;;;;;4995717;28;20050;-86
2023/11/11 04:34:43;;;;;;;10.00;4.65;;;;;;;;;;5010431;28;20057;-86
2023/11/11 04:37:11;;;;;;;4.60;4.20;;;;;;;;;;5010842;28;20133;-86
2023/11/11 04:39:40;;;;;;;5.63;4.78;;;;;;;;;;4995583;28;20054;-86
2023/11/11 04:42:10;;;;;;;9.02;5.05;;;;;;;;;;5010757;28;20058;-85
2023/11/11 04:44:38;;;;;;;6.25;4.63;;;;;;;;;;5010226;28;20084;-86
2023/11/11 04:47:07;;;;;;;7.20;4.20;;;;;;;;;;5010572;28;20054;-86
2023/11/11 04:49:34;;;;;;;5.65;4.78;;;;;;;;;;5010648;28;20050;-86
2023/11/11 04:52:01;;;;;;;6.53;4.70;;;;;;;;;;5010601;28;20047;-86
2023/11/11 04:54:29;;;;;;;6.35;4.20;;;;;;;;;;5009929;28;20081;-86
2023/11/11 04:56:57;;;;;;;10.27;5.45;;;;;;;;;;5010481;28;20492;-86
2023/11/11 04:59:25;;;;;;;10.82;4.60;;;;;;;;;;4994895;28;20124;-86
2023/11/11 05:01:53;;;;;;;12.48;4.72;;;;;;;;;;5010127;28;20046;-86
2023/11/11 05:04:24;;;;;;;9.75;5.03;;;;;;;;;;5009664;28;20058;-86
2023/11/11 05:06:51;;;;;;;7.78;4.38;;;;;;;;;;5010083;28;20057;-86
2023/11/11 05:09:20;;;;;;;9.70;3.80;;;;;;;;;;4994896;28;20483;-86
2023/11/11 05:11:48;;;;;;;7.47;3.83;;;;;;;;;;4995073;28;20046;-86
2023/11/11 05:14:18;;;;;;;6.22;4.25;;;;;;;;;;5009713;28;20054;-85
2023/11/11 05:16:50;;;;;;;6.47;4.03;;;;;;;;;;4995250;28;20050;-86
2023/11/11 05:19:18;;;;;;;11.33;5.00;;;;;;;;;;4995015;28;20419;-86
2023/11/11 05:21:46;;;;;;;6.22;3.63;;;;;;;;;;4994515;28;20289;-85
2023/11/11 05:24:14;;;;;;;5.00;4.00;;;;;;;;;;5009704;28;20148;-86
2023/11/11 05:26:42;;;;;;;5.95;3.78;;;;;;;;;;5009716;28;20430;-85
2023/11/11 05:29:10;;;;;;;5.43;3.80;;;;;;;;;;5009815;28;20071;-86
2023/11/11 05:31:37;;;;;;;7.50;4.40;;;;;;;;;;4994667;28;20100;-86
2023/11/11 05:34:04;;;;;;;6.07;3.92;;;;;;;;;;4994450;28;20148;-86
2023/11/11 05:36:33;;;;;;;5.10;4.47;;;;;;;;;;4994436;28;20487;-86
2023/11/11 05:39:01;;;;;;;10.05;4.80;;;;;;;;;;4994468;28;20491;-87
2023/11/11 05:41:30;;;;;;;6.72;3.42;;;;;;;;;;4994699;28;20058;-87
2023/11/11 05:43:58;;;;;;;6.07;3.58;;;;;;;;;;5009499;28;20058;-86
2023/11/11 05:46:25;;;;;;;6.90;4.35;;;;;;;;;;5009618;28;20050;-87
2023/11/11 05:48:53;;;;;;;5.43;3.85;;;;;;;;;;4994519;28;20404;-86
2023/11/11 05:51:21;;;;;;;4.63;3.45;;;;;;;;;;4994384;28;20082;-86
2023/11/11 05:53:48;;;;;;;6.60;4.18;;;;;;;;;;4993895;28;20053;-87
2023/11/11 05:56:16;;;;;;;5.47;3.47;;;;;;;;;;5009322;28;20499;-86
2023/11/11 05:58:44;;;;;;;4.93;3.45;;;;;;;;;;5009386;28;20518;-87
2023/11/11 06:01:11;;;;;;;3.95;3.40;;;;;;;;;;5009425;28;20515;-86
2023/11/11 06:03:38;;;;;;;10.50;4.22;;;;;;;;;;5009092;28;20076;-87
2023/11/11 06:06:06;;;;;;;7.43;3.80;;;;;;;;;;4994083;28;20480;-86
2023/11/11 06:08:33;;;;;;;3.78;3.47;;;;;;;;;;5008829;28;20054;-86
2023/11/11 06:11:02;;;;;;;8.27;4.25;;;;;;;;;;5009208;28;20496;-86
2023/11/11 06:13:29;;;;;;;7.78;3.78;;;;;;;;;;5008770;28;20057;-86
2023/11/11 06:15:56;;;;;;;4.95;3.83;;;;;;;;;;5008923;28;20117;-86
2023/11/11 06:18:24;;;;;;;4.57;3.58;;;;;;;;;;4993598;28;20046;-86
2023/11/11 06:20:52;;;;;;;7.47;5.20;;;;;;;;;;5008843;28;20058;-86
2023/11/11 06:23:19;;;;;;;10.77;5.07;;;;;;;;;;5008466;28;20051;-85
2023/11/11 06:25:49;;;;;;;7.28;4.95;;;;;;;;;;4993511;28;20137;-86
2023/11/11 06:28:16;;;;;;;8.18;4.43;;;;;;;;;;5008768;28;20113;-86
2023/11/11 06:30:44;;;;;;;5.85;4.22;;;;;;;;;;5008633;28;20388;-85
2023/11/11 06:33:12;;;;;;;10.50;5.18;;;;;;;;;;5007753;28;20060;-84
2023/11/11 06:35:39;;;;;;;7.00;4.25;;;;;;;;;;4992292;28;20058;-83
2023/11/11 06:38:06;;;;;;;5.55;4.25;;;;;;;;;;5007981;28;20108;-84
2023/11/11 06:40:33;;;;;;;4.25;3.80;;;;;;;;;;4992767;28;20474;-83
2023/11/11 06:43:01;;;;;;;6.18;4.32;;;;;;;;;;5007604;28;20096;-83
2023/11/11 06:45:30;;;;;;;11.10;5.22;;;;;;;;;;4992629;28;20133;-83
2023/11/11 06:47:57;;;;;;;6.53;4.85;;;;;;;;;;4984682;28;20467;-82
2023/11/11 06:50:25;;;;;;;8.02;4.55;;;;;;;;;;4992436;28;20053;-83
2023/11/11 06:52:52;;;;;;;6.15;4.70;;;;;;;;;;5007731;28;20050;-82
2023/11/11 06:55:19;;;;;;;14.40;6.20;;;;;;;;;;4992446;28;20466;-82
2023/11/11 06:57:47;;;;;;;5.97;4.20;;;;;;;;;;4992780;28;20050;-82
2023/11/11 07:00:18;;;;;;;4.97;4.40;;;;;;;;;;5007470;28;20054;-82
2023/11/11 07:02:47;;;;;;;4.85;4.00;;;;;;;;;;5007642;28;20050;-82
2023/11/11 07:05:14;;;;;;;6.18;4.35;;;;;;;;;;5007432;28;20197;-82
2023/11/11 07:07:42;;;;;;;7.45;4.45;;;;;;;;;;5007474;28;20112;-82
2023/11/11 07:10:11;;;;;;;7.72;3.83;;;;;;;;;;5007473;28;20058;-82
2023/11/11 07:12:39;;;;;;;9.40;5.25;;;;;;;;;;5007291;28;20105;-82
2023/11/11 07:15:10;;;;;;;7.80;4.28;;;;;;;;;;4991920;28;20133;-82
2023/11/11 07:17:41;;;;;;;8.77;5.10;;;;;;;;;;5007622;28;20120;-82
2023/11/11 07:20:12;;;;;;;4.50;2.80;;;;;;;;;;5007520;28;20082;-82
2023/11/11 07:22:40;;;;;;;4.38;2.47;;;;;;;;;;4992540;28;20050;-82
2023/11/11 07:25:09;;;;;;;6.25;2.42;;;;;;;;;;4992258;28;20057;-82
2023/11/11 07:27:36;;;;;;;3.50;2.90;;;;;;;;;;4992145;28;20114;-82
2023/11/11 07:30:04;;;;;;;5.53;2.80;;;;;;;;;;4992303;28;20054;-82
2023/11/11 07:32:31;;;;;;;2.13;1.10;;;;;;;;;;5007248;28;20117;-81
2023/11/11 07:34:59;;;;;;;2.15;1.00;;;;;;;;;;4991831;28;20620;-81
2023/11/11 07:37:26;;;;;;;0.90;0.50;;;;;;;;;;4992090;28;20491;-80
2023/11/11 07:39:55;;;;;;;0.90;0.40;;;;;;;;;;5007352;28;20134;-81
2023/11/11 07:42:22;;;;;;;0.75;0.50;;;;;;;;;;4992002;28;20050;-81
2023/11/11 07:44:50;;;;;;;1.10;0.30;;;;;;;;;;4992294;28;20069;-82
2023/11/11 07:47:18;;;;;;;0.63;0.20;;;;;;;;;;5010804;28;20057;-81
2023/11/11 07:49:45;;;;;;;2.47;0.70;;;;;;;;;;4995794;28;20054;-82
2023/11/11 07:52:12;;;;;;;1.00;1.00;;;;;;;;;;4995706;28;20066;-82
2023/11/11 07:54:39;;;;;;;1.90;0.77;;;;;;;;;;5010042;28;20493;-82
2023/11/11 07:57:07;;;;;;;0.77;0.43;;;;;;;;;;5010608;28;20097;-81
2023/11/11 07:59:43;;;;;;;1.45;0.40;;;;;;;;;;5010713;28;20100;-81
2023/11/11 08:02:14;;;;;;;0.40;0.20;;;;;;;;;;4995874;28;20050;-81
2023/11/11 08:04:42;;;;;;;0.13;0.13;;;;;;;;;;5010380;28;20129;-81
2023/11/11 08:07:11;;;;;;;1.67;0.20;;;;;;;;;;5010225;28;20124;-81
2023/11/11 08:09:38;;;;;;;0.35;0.25;;;;;;;;;;4995358;28;20407;-81
2023/11/11 08:12:06;;;;;;;0.20;0.20;;;;;;;;;;5010695;28;20042;-82
2023/11/11 08:14:33;;;;;;;3.10;0.20;;;;;;;;;;4995060;28;20549;-82
2023/11/11 08:17:00;;;;;;;0.22;0.22;;;;;;;;;;4995468;28;20097;-82
2023/11/11 08:19:28;;;;;;;0.10;0.10;;;;;;;;;;5010368;28;20132;-82
2023/11/11 08:21:55;;;;;;;0.30;0.20;;;;;;;;;;5010214;28;20054;-81
2023/11/11 08:24:23;;;;;;;0.10;0.10;;;;;;;;;;4994724;28;20062;-81
2023/11/11 08:26:50;;;;;;;1.08;0.30;;;;;;;;;;4995437;28;20054;-81
2023/11/11 08:29:18;;;;;;;1.33;0.22;;;;;;;;;;4995009;28;20089;-81
2023/11/11 08:31:45;;;;;;;1.05;0.50;;;;;;;;;;5010022;28;20042;-81
2023/11/11 08:34:13;;;;;;;0.38;0.38;;;;;;;;;;5009485;28;20503;-82
2023/11/11 08:36:40;;;;;;;0.05;0.05;;;;;;;;;;4994827;28;20106;-82
2023/11/11 08:39:20;;;;;;;0.22;0.20;;;;;;;;;;5008589;28;20047;-82
2023/11/11 08:41:48;;;;;;;1.48;1.20;;;;;;;;;;4994978;28;20380;-82
2023/11/11 08:44:15;;;;;;;1.58;1.05;;;;;;;;;;4994439;28;20096;-82
2023/11/11 08:46:42;;;;;;;1.25;1.05;;;;;;;;;;4994926;28;20054;-82
2023/11/11 08:49:10;;;;;;;1.85;1.55;;;;;;;;;;4994603;28;20054;-81
2023/11/11 08:51:39;;;;;;;1.20;1.10;;;;;;;;;;4994402;28;20128;-82
2023/11/11 08:54:07;;;;;;;0.50;0.50;;;;;;;;;;5009245;28;20062;-82
2023/11/11 08:56:34;;;;;;;1.58;1.48;;;;;;;;;;5008790;28;20392;-82
2023/11/11 08:59:04;;;;;;;1.58;0.60;;;;;;;;;;5009609;28;20050;-82
2023/11/11 09:01:32;;;;;;;2.13;2.03;;;;;;;;;;5009344;28;20054;-82
2023/11/11 09:04:02;;;;;;;3.25;3.05;;;;;;;;;;5009397;28;20082;-83
2023/11/11 09:06:30;;;;;;;4.45;4.15;;;;;;;;;;5009210;28;20046;-82
2023/11/11 09:08:57;;;;;;;3.05;2.88;;;;;;;;;;4994794;28;20054;-83
2023/11/11 09:11:25;;;;;;;5.95;5.22;;;;;;;;;;5009272;28;20046;-82
2023/11/11 09:13:52;;;;;;;1.15;1.08;;;;;;;;;;4993954;28;20073;-82
2023/11/11 09:16:19;;;;;;;1.08;0.95;;;;;;;;;;4993804;28;20062;-82
2023/11/11 09:18:47;;;;;;;6.70;3.60;;;;;;;;;;4994309;28;20074;-83
2023/11/11 09:21:14;;;;;;;13.48;10.43;;;;;;;;;;5009066;28;20050;-82
2023/11/11 09:23:42;;;;;;;6.75;6.10;;;;;;;;;;5008915;28;20043;-83
2023/11/11 09:26:09;;;;;;;1.50;1.40;;;;;;;;;;4993820;28;20502;-83
2023/11/11 09:28:37;;;;;;;0.30;0.30;;;;;;;;;;4993958;28;20050;-83
2023/11/11 09:31:04;;;;;;;4.03;0.40;;;;;;;;;;5009278;28;20050;-83
2023/11/11 09:33:32;;;;;;;1.05;0.45;;;;;;;;;;4993667;28;20410;-82
2023/11/11 09:36:00;;;;;;;0.60;0.60;;;;;;;;;;4993783;28;20046;-83
2023/11/11 09:38:27;;;;;;;1.15;0.60;;;;;;;;;;4993692;28;20515;-83
2023/11/11 09:40:55;;;;;;;0.98;0.38;;;;;;;;;;4993650;28;20104;-83
2023/11/11 09:43:22;;;;;;;0.60;0.60;;;;;;;;;;5008612;28;20146;-83
2023/11/11 09:45:51;;;;;;;1.00;0.85;;;;;;;;;;5008735;28;20046;-83
2023/11/11 09:48:19;;;;;;;3.17;2.88;;;;;;;;;;5008648;28;20050;-84
2023/11/11 09:50:46;;;;;;;4.90;4.20;;;;;;;;;;4993717;28;20042;-84
2023/11/11 09:53:14;;;;;;;1.92;1.83;;;;;;;;;;5007824;28;20051;-84
2023/11/11 09:55:41;;;;;;;5.20;4.03;;;;;;;;;;5001328;28;20408;-84
2023/11/11 09:58:10;;;;;;;7.65;4.00;;;;;;;;;;4993636;28;20046;-83
2023/11/11 10:00:38;;;;;;;4.70;3.28;;;;;;;;;;5008687;28;20046;-84
2023/11/11 10:03:05;;;;;;;1.90;1.70;;;;;;;;;;5008264;28;20042;-84
2023/11/11 10:05:33;;;;;;;1.42;1.33;;;;;;;;;;4985411;28;20056;-84
2023/11/11 10:08:01;;;;;;;1.95;1.85;;;;;;;;;;5008154;28;20057;-85
2023/11/11 10:10:30;;;;;;;1.20;1.10;;;;;;;;;;4992892;28;20136;-85
2023/11/11 10:12:58;;;;;;;0.73;0.68;;;;;;;;;;5008424;28;20042;-85
2023/11/11 10:15:25;;;;;;;1.17;0.40;;;;;;;;;;4993139;28;20053;-84
2023/11/11 10:17:52;;;;;;;1.85;0.90;;;;;;;;;;5008766;28;20051;-85
2023/11/11 10:20:20;;;;;;;1.10;1.00;;;;;;;;;;5008550;28;20458;-85
2023/11/11 10:22:49;;;;;;;0.70;0.70;;;;;;;;;;5008704;28;20392;-84
2023/11/11 10:25:17;;;;;;;0.70;0.70;;;;;;;;;;4993612;28;20121;-85
2023/11/11 10:27:50;;;;;;;0.68;0.68;;;;;;;;;;4993545;28;20053;-86
2023/11/11 10:30:27;;;;;;;1.25;0.70;;;;;;;;;;5008575;28;20134;-86
2023/11/11 10:32:58;;;;;;;0.80;0.80;;;;;;;;;;5008516;28;20112;-86
2023/11/11 10:35:25;;;;;;;1.75;0.85;;;;;;;;;;5008362;28;20050;-86
2023/11/11 10:37:54;;;;;;;0.77;0.57;;;;;;;;;;5008925;28;20105;-86
2023/11/11 10:40:22;;;;;;;2.33;0.88;;;;;;;;;;5008368;28;20444;-86
2023/11/11 10:42:50;;;;;;;0.55;0.55;;;;;;;;;;5008850;28;20301;-86
2023/11/11 10:45:17;;;;;;;1.13;1.13;;;;;;;;;;4993276;28;20050;-86
2023/11/11 10:47:46;;;;;;;2.28;1.20;;;;;;;;;;5008684;28;20054;-85
2023/11/11 10:50:13;;;;;;;1.52;0.70;;;;;;;;;;5000563;28;20051;-87
2023/11/11 10:52:41;;;;;;;0.77;0.77;;;;;;;;;;5008527;28;20483;-85
2023/11/11 10:55:10;;;;;;;2.35;0.90;;;;;;;;;;5008336;28;20046;-87
2023/11/11 10:57:42;;;;;;;1.17;0.82;;;;;;;;;;5008704;28;20468;-87
2023/11/11 11:00:19;;;;;;;3.13;1.00;;;;;;;;;;4993710;28;20089;-87
2023/11/11 11:02:50;;;;;;;1.77;0.95;;;;;;;;;;5008628;28;20088;-86
2023/11/11 11:05:27;;;;;;;2.83;0.70;;;;;;;;;;5008505;28;20141;-86
2023/11/11 11:07:59;;;;;;;1.20;0.98;;;;;;;;;;4993324;28;20511;-86
2023/11/11 11:10:32;;;;;;;1.05;0.80;;;;;;;;;;4993323;28;20109;-86
2023/11/11 11:13:03;;;;;;;1.38;0.77;;;;;;;;;;4993560;28;20058;-88
2023/11/11 11:15:38;;;;;;;1.38;1.00;;;;;;;;;;5008954;28;20062;-87
2023/11/11 11:18:09;;;;;;;2.35;0.90;;;;;;;;;;4997701;28;20050;-86
2023/11/11 11:20:37;;;;;;;0.50;0.50;;;;;;;;;;4990640;28;20060;-88
2023/11/11 11:23:04;;;;;;;0.57;0.57;;;;;;;;;;4997302;28;20105;-87
2023/11/11 11:25:36;;;;;;;0.60;0.57;;;;;;;;;;5012279;28;20058;-87
2023/11/11 11:28:14;;;;;;;3.95;0.90;;;;;;;;;;4997686;28;20046;-88
2023/11/11 11:30:41;;;;;;;2.67;1.25;;;;;;;;;;5012323;28;20105;-88
2023/11/11 11:33:14;;;;;;;1.27;0.90;;;;;;;;;;4996977;28;20058;-86
2023/11/11 11:35:47;;;;;;;1.17;0.65;;;;;;;;;;5011870;28;20491;-88
2023/11/11 11:38:20;;;;;;;2.55;0.40;;;;;;;;;;4997138;28;20470;-87
2023/11/11 11:40:49;;;;;;;0.85;0.70;;;;;;;;;;4996909;28;20104;-87
2023/11/11 11:43:24;;;;;;;1.95;0.40;;;;;;;;;;4996654;28;20051;-88
2023/11/11 11:45:51;;;;;;;1.20;0.50;;;;;;;;;;4996633;28;20050;-88
2023/11/11 11:48:18;;;;;;;1.33;0.50;;;;;;;;;;4996545;28;20050;-86
2023/11/11 11:50:46;;;;;;;0.32;0.32;;;;;;;;;;4996680;28;20054;-87
2023/11/11 11:53:13;;;;;;;0.80;0.40;;;;;;;;;;5012216;28;20050;-88
2023/11/11 11:55:40;;;;;;;1.95;0.68;;;;;;;;;;4996466;28;20160;-87
2023/11/11 11:58:08;;;;;;;0.50;0.20;;;;;;;;;;4996299;28;20070;-87
2023/11/11 12:00:38;;;;;;;2.65;0.50;;;;;;;;;;5011471;28;20058;-86
2023/11/11 12:03:06;;;;;;;4.90;1.92;;;;;;;;;;5011296;28;20046;-86
2023/11/11 12:05:34;;;;;;;3.67;2.10;;;;;;;;;;4988524;28;20046;-87
2023/11/11 12:08:01;;;;;;;3.88;1.42;;;;;;;;;;4996187;28;20062;-87
2023/11/11 12:10:42;;;;;;;0.90;0.70;;;;;;;;;;5011323;28;20086;-86
2023/11/11 12:13:10;;;;;;;0.50;0.50;;;;;;;;;;5011183;28;20467;-87
2023/11/11 12:15:37;;;;;;;1.25;0.57;;;;;;;;;;5011230;28;20054;-86
2023/11/11 12:18:11;;;;;;;0.50;0.50;;;;;;;;;;5011561;28;20050;-86
2023/11/11 12:20:41;;;;;;;0.52;0.50;;;;;;;;;;5011403;28;20053;-87
2023/11/11 12:23:11;;;;;;;0.70;0.38;;;;;;;;;;5010989;28;20556;-87
2023/11/11 12:25:41;;;;;;;1.83;0.30;;;;;;;;;;4995663;28;20050;-87
2023/11/11 12:28:08;;;;;;;0.68;0.43;;;;;;;;;;5011188;28;20058;-87
2023/11/11 12:30:35;;;;;;;0.95;0.35;;;;;;;;;;4995801;28;20061;-87
2023/11/11 12:33:10;;;;;;;0.40;0.30;;;;;;;;;;5009982;28;20419;-87
2023/11/11 12:35:40;;;;;;;1.77;0.20;;;;;;;;;;5010736;28;20049;-87
2023/11/11 12:38:23;;;;;;;2.30;0.30;;;;;;;;;;5010835;28;20426;-84
2023/11/11 12:40:54;;;;;;;0.52;0.32;;;;;;;;;;4990289;28;20101;-86
2023/11/11 12:43:22;;;;;;;0.32;0.32;;;;;;;;;;4995508;28;20484;-84
2023/11/11 12:45:54;;;;;;;1.23;0.20;;;;;;;;;;5010648;28;20142;-86
2023/11/11 12:48:30;;;;;;;0.65;0.40;;;;;;;;;;4995406;28;20087;-86
2023/11/11 12:50:58;;;;;;;0.50;0.40;;;;;;;;;;5010731;28;20054;-86
2023/11/11 12:53:25;;;;;;;0.47;0.30;;;;;;;;;;4993169;28;20081;-87
2023/11/11 12:56:09;;;;;;;0.60;0.40;;;;;;;;;;5005455;28;20109;-86
2023/11/11 12:58:36;;;;;;;2.67;1.20;;;;;;;;;;5003067;28;20082;-87
2023/11/11 13:01:04;;;;;;;0.70;0.40;;;;;;;;;;5010354;28;20082;-87
2023/11/11 13:03:33;;;;;;;1.02;0.30;;;;;;;;;;5009823;28;20105;-86
2023/11/11 13:06:03;;;;;;;1.23;0.47;;;;;;;;;;5010547;28;20054;-86
2023/11/11 13:08:31;;;;;;;1.25;0.47;;;;;;;;;;5010284;28;20509;-87
2023/11/11 13:10:59;;;;;;;1.85;0.40;;;;;;;;;;4995286;28;20475;-87
2023/11/11 13:13:29;;;;;;;0.35;0.30;;;;;;;;;;5010033;28;20054;-87
2023/11/11 13:15:59;;;;;;;1.17;0.35;;;;;;;;;;5010110;28;20495;-85
2023/11/11 13:18:27;;;;;;;0.47;0.35;;;;;;;;;;5010123;28;20137;-86
2023/11/11 13:20:57;;;;;;;1.00;0.40;;;;;;;;;;5010020;28;20138;-87
2023/11/11 13:23:29;;;;;;;0.35;0.30;;;;;;;;;;5009857;28;20129;-87
2023/11/11 13:25:57;;;;;;;0.95;0.40;;;;;;;;;;5009828;28;20057;-86
2023/11/11 13:28:24;;;;;;;0.47;0.47;;;;;;;;;;4994920;28;20057;-86
2023/11/11 13:30:53;;;;;;;3.20;1.00;;;;;;;;;;4994834;28;20050;-87
2023/11/11 13:33:21;;;;;;;1.02;0.40;;;;;;;;;;4994477;28;20062;-87
2023/11/11 13:35:54;;;;;;;1.23;0.82;;;;;;;;;;5009657;28;20050;-86
2023/11/11 13:38:22;;;;;;;;;;;;;;;;;;5002196;28;20058;-87
2023/11/11 13:40:50;;;;;;;2.35;0.60;;;;;;;;;;5009636;28;19922;-87
2023/11/11 13:43:21;;;;;;;1.27;0.63;;;;;;;;;;4994152;28;20048;-86
2023/11/11 13:45:49;;;;;;;1.38;0.77;;;;;;;;;;5009471;28;20064;-86
2023/11/11 13:48:17;;;;;;;1.13;0.55;;;;;;;;;;4994321;28;20050;-86
2023/11/11 13:50:44;;;;;;;1.25;0.70;;;;;;;;;;4994463;28;20125;-87
2023/11/11 13:53:12;;;;;;;1.10;0.50;;;;;;;;;;4994025;28;20047;-86
2023/11/11 13:55:40;;;;;;;1.52;0.80;;;;;;;;;;5009338;28;20054;-86
2023/11/11 13:58:07;;;;;;;2.08;0.90;;;;;;;;;;4994527;28;20101;-86
2023/11/11 14:00:37;;;;;;;2.25;1.48;;;;;;;;;;5009536;28;20046;-85
2023/11/11 14:03:07;;;;;;;2.80;0.65;;;;;;;;;;4994092;28;20050;-86
2023/11/11 14:05:36;;;;;;;4.32;1.00;;;;;;;;;;4985684;28;20133;-85
2023/11/11 14:08:06;;;;;;;1.33;1.00;;;;;;;;;;5008932;28;20058;-87
2023/11/11 14:10:34;;;;;;;2.55;1.10;;;;;;;;;;5009262;28;20100;-85
2023/11/11 14:13:02;;;;;;;0.73;0.60;;;;;;;;;;4994546;28;20046;-85
2023/11/11 14:15:39;;;;;;;1.23;1.10;;;;;;;;;;5010466;28;20467;-85
2023/11/11 14:18:11;;;;;;;5.28;2.40;;;;;;;;;;5009224;28;20052;-85
2023/11/11 14:20:40;;;;;;;3.72;2.35;;;;;;;;;;5009089;28;20070;-87
2023/11/11 14:23:07;;;;;;;1.15;1.02;;;;;;;;;;5009036;28;20407;-86
2023/11/11 14:25:35;;;;;;;1.42;1.00;;;;;;;;;;5001223;28;20411;-87
2023/11/11 14:28:08;;;;;;;1.08;0.98;;;;;;;;;;5008916;28;20054;-86
2023/11/11 14:30:35;;;;;;;0.80;0.60;;;;;;;;;;5008733;28;20058;-86
2023/11/11 14:33:03;;;;;;;0.95;0.68;;;;;;;;;;5008657;28;20057;-87
2023/11/11 14:35:30;;;;;;;1.38;0.80;;;;;;;;;;4993656;28;20062;-86
2023/11/11 14:37:58;;;;;;;2.30;0.80;;;;;;;;;;5008806;28;20054;-86
2023/11/11 14:40:26;;;;;;;2.30;1.13;;;;;;;;;;4993500;28;20396;-86
2023/11/11 14:42:56;;;;;;;3.08;1.00;;;;;;;;;;5008591;28;20054;-86
2023/11/11 14:45:26;;;;;;;1.02;0.63;;;;;;;;;;5008426;28;20129;-86
2023/11/11 14:47:53;;;;;;;1.10;1.00;;;;;;;;;;5009072;28;20126;-87
2023/11/11 14:50:21;;;;;;;1.67;0.77;;;;;;;;;;5008694;28;20061;-86